Аэропорт: Усть-Каменогорск. Усть-Каменогорск

ICAO: UASK

METAR:
2019/03/26 13:00
UASK 261300Z 00000MPS 9999 NSC M02/M03 Q1025 R30/090060 NOSIG RMK QFE743/0991
METAR:
Информация по данной станции не доступна